createdAt,value
2023-01-07T00:04:42.503Z,9.20
2023-01-07T00:10:44.360Z,9.10
2023-01-07T00:16:46.192Z,9.10
2023-01-07T00:22:49.948Z,9.20
2023-01-07T00:28:52.964Z,9.10
2023-01-07T00:34:54.754Z,9.10
2023-01-07T00:40:57.419Z,9.10
2023-01-07T00:47:00.180Z,9.20
2023-01-07T00:53:02.475Z,9.30
2023-01-07T00:59:04.364Z,9.30
2023-01-07T01:05:07.249Z,9.20
2023-01-07T01:11:14.055Z,9.20
2023-01-07T01:17:18.745Z,9.20
2023-01-07T01:23:20.852Z,9.20
2023-01-07T01:29:22.694Z,9.20
2023-01-07T01:35:26.331Z,9.20
2023-01-07T01:41:29.745Z,9.30
2023-01-07T01:47:55.235Z,9.20
2023-01-07T01:53:58.731Z,9.20
2023-01-07T02:00:00.957Z,9.30
2023-01-07T02:06:12.209Z,9.20
2023-01-07T02:12:47.227Z,9.20
2023-01-07T02:19:18.175Z,9.10
2023-01-07T02:26:10.849Z,9.10
2023-01-07T02:32:22.541Z,9.10
2023-01-07T02:39:02.174Z,9.00
2023-01-07T02:45:33.406Z,9.00
2023-01-07T02:51:39.061Z,9.00
2023-01-07T02:57:55.822Z,9.10
2023-01-07T03:04:10.841Z,9.10
2023-01-07T03:10:40.251Z,9.20
2023-01-07T03:16:46.183Z,9.20
2023-01-07T03:22:49.838Z,9.30
2023-01-07T03:28:54.206Z,9.30
2023-01-07T03:34:56.503Z,9.30
2023-01-07T03:40:58.735Z,9.30
2023-01-07T03:47:00.974Z,9.30
2023-01-07T03:53:03.421Z,9.30
2023-01-07T03:59:11.594Z,9.30
2023-01-07T04:05:13.968Z,9.30
2023-01-07T04:11:16.909Z,9.30
2023-01-07T04:17:31.447Z,9.30
2023-01-07T04:23:38.750Z,9.30
2023-01-07T04:29:47.247Z,9.30
2023-01-07T04:35:49.685Z,9.30
2023-01-07T04:42:03.895Z,9.30
2023-01-07T04:48:13.654Z,9.30
2023-01-07T04:54:16.301Z,9.20
2023-01-07T05:00:21.480Z,9.20
2023-01-07T05:06:25.239Z,9.20
2023-01-07T05:12:37.315Z,9.10
2023-01-07T05:18:40.792Z,9.20
2023-01-07T05:24:44.382Z,9.10
2023-01-07T05:30:48.640Z,9.10
2023-01-07T05:36:53.127Z,9.20
2023-01-07T05:42:55.055Z,9.20
2023-01-07T05:48:56.920Z,9.10
2023-01-07T05:54:58.687Z,9.00
2023-01-07T06:01:00.565Z,8.90
2023-01-07T06:07:05.616Z,8.80
2023-01-07T06:13:07.453Z,8.70
2023-01-07T06:19:10.243Z,8.50
2023-01-07T06:25:12.726Z,8.40
2023-01-07T06:31:14.616Z,8.30
2023-01-07T06:37:17.940Z,8.30
2023-01-07T06:43:19.806Z,8.50
2023-01-07T06:49:24.296Z,8.60
2023-01-07T06:55:26.131Z,8.60
2023-01-07T07:01:28.135Z,8.60
2023-01-07T07:07:30.048Z,8.60
2023-01-07T07:13:31.912Z,8.70
2023-01-07T07:19:33.930Z,8.70
2023-01-07T07:25:35.789Z,8.70
2023-01-07T07:31:38.160Z,8.80
2023-01-07T07:37:42.946Z,8.90
2023-01-07T07:43:44.748Z,8.90
2023-01-07T07:49:47.798Z,9.00
2023-01-07T07:55:49.738Z,9.10
2023-01-07T08:01:51.667Z,9.20
2023-01-07T08:07:54.049Z,9.30
2023-01-07T08:13:55.902Z,9.40
2023-01-07T08:19:57.732Z,9.40
2023-01-07T08:26:00.908Z,9.50
2023-01-07T08:32:02.758Z,9.60
2023-01-07T08:38:07.080Z,9.60
2023-01-07T08:44:09.016Z,9.70
2023-01-07T08:50:10.800Z,9.70
2023-01-07T08:56:12.613Z,9.80
2023-01-07T09:02:19.223Z,9.70
2023-01-07T09:08:21.122Z,9.70
2023-01-07T09:14:22.939Z,9.80
2023-01-07T09:20:24.760Z,9.90
2023-01-07T09:26:26.539Z,10.10
2023-01-07T09:32:28.966Z,10.10
2023-01-07T09:38:33.029Z,10.10
2023-01-07T09:44:59.916Z,10.20
2023-01-07T09:51:16.068Z,10.30
2023-01-07T09:57:18.151Z,10.40
2023-01-07T10:03:22.843Z,10.40
2023-01-07T10:09:48.662Z,10.40
2023-01-07T10:15:53.533Z,10.50
2023-01-07T10:22:02.507Z,10.60
2023-01-07T10:28:08.286Z,10.60
2023-01-07T10:34:19.392Z,10.60
2023-01-07T10:40:21.139Z,10.60
2023-01-07T10:46:30.807Z,10.60
2023-01-07T10:52:47.580Z,10.80
2023-01-07T10:58:50.410Z,10.90
2023-01-07T11:04:54.354Z,11.00
2023-01-07T11:10:58.777Z,11.20
2023-01-07T11:17:14.455Z,11.40
2023-01-07T11:23:38.225Z,11.50
2023-01-07T11:29:55.199Z,11.60
2023-01-07T11:35:57.583Z,11.70
2023-01-07T11:42:35.405Z,11.70
2023-01-07T11:48:42.729Z,11.60
2023-01-07T11:54:51.752Z,11.40
2023-01-07T12:01:09.151Z,11.30
2023-01-07T12:07:16.199Z,11.30
2023-01-07T12:13:21.840Z,11.10
2023-01-07T12:19:47.531Z,11.00
2023-01-07T12:26:16.921Z,10.80
2023-01-07T12:32:30.620Z,10.70
2023-01-07T12:38:47.475Z,10.60
2023-01-07T12:44:57.424Z,10.50
2023-01-07T12:51:01.765Z,10.50
2023-01-07T12:57:34.058Z,10.40
2023-01-07T13:04:09.099Z,10.40
2023-01-07T13:10:23.464Z,10.50
2023-01-07T13:16:25.426Z,10.60
2023-01-07T13:22:43.519Z,10.70
2023-01-07T13:28:57.408Z,10.60
2023-01-07T13:35:07.963Z,10.60
2023-01-07T13:41:34.615Z,10.40
2023-01-07T13:47:54.330Z,10.20
2023-01-07T13:53:58.305Z,10.20
2023-01-07T14:00:02.302Z,10.10
2023-01-07T14:06:19.770Z,10.00
2023-01-07T14:12:41.825Z,10.00
2023-01-07T14:18:58.832Z,9.90
2023-01-07T14:25:18.925Z,9.90
2023-01-07T14:31:24.400Z,9.80
2023-01-07T14:38:22.660Z,9.80
2023-01-07T14:45:25.145Z,9.80
2023-01-07T14:51:38.408Z,9.70
2023-01-07T14:58:14.403Z,9.70
2023-01-07T15:04:59.573Z,9.60
2023-01-07T15:11:23.016Z,9.60
2023-01-07T15:17:25.114Z,9.50
2023-01-07T15:23:46.924Z,9.40
2023-01-07T15:30:17.739Z,9.30
2023-01-07T15:36:20.102Z,9.20
2023-01-07T15:42:27.344Z,9.20
2023-01-07T15:48:29.520Z,9.10
2023-01-07T15:54:38.281Z,9.10
2023-01-07T16:00:40.833Z,9.10
2023-01-07T16:06:46.125Z,9.00
2023-01-07T16:12:53.323Z,9.00
2023-01-07T16:19:02.252Z,9.00
2023-01-07T16:25:13.142Z,9.00
2023-01-07T16:31:19.053Z,9.00
2023-01-07T16:37:21.375Z,9.00
2023-01-07T16:43:38.514Z,9.00
2023-01-07T16:49:40.524Z,9.00
2023-01-07T16:55:43.414Z,8.90
2023-01-07T17:01:45.439Z,8.90
2023-01-07T17:07:57.931Z,9.00
2023-01-07T17:13:59.985Z,8.90
2023-01-07T17:20:13.698Z,8.90
2023-01-07T17:26:24.513Z,8.90
2023-01-07T17:32:26.321Z,8.90
2023-01-07T17:38:29.429Z,8.90
2023-01-07T17:44:32.993Z,8.90
2023-01-07T17:50:37.259Z,8.90
2023-01-07T17:56:40.156Z,8.90
2023-01-07T18:02:42.458Z,8.90
2023-01-07T18:08:46.350Z,8.90
2023-01-07T18:14:48.241Z,8.90
2023-01-07T18:20:50.317Z,8.90
2023-01-07T18:26:53.224Z,8.90
2023-01-07T18:32:55.854Z,8.90
2023-01-07T18:38:57.573Z,8.90
2023-01-07T18:44:59.604Z,9.00
2023-01-07T18:51:01.450Z,8.90
2023-01-07T18:57:03.988Z,8.90
2023-01-07T19:03:05.773Z,8.90
2023-01-07T19:09:07.602Z,8.90
2023-01-07T19:15:09.946Z,8.90
2023-01-07T19:21:12.901Z,8.80
2023-01-07T19:27:14.758Z,8.90
2023-01-07T19:33:16.645Z,8.80
2023-01-07T19:39:21.612Z,8.80
2023-01-07T19:45:23.527Z,8.70
2023-01-07T19:51:25.843Z,8.50
2023-01-07T19:57:29.044Z,8.40
2023-01-07T20:03:32.637Z,8.20
2023-01-07T20:09:34.612Z,8.10
2023-01-07T20:15:39.273Z,8.00
2023-01-07T20:21:41.327Z,7.90
2023-01-07T20:27:43.320Z,7.80
2023-01-07T20:33:45.544Z,7.70
2023-01-07T20:39:47.338Z,7.60
2023-01-07T20:45:49.214Z,7.60
2023-01-07T20:51:51.036Z,7.60
2023-01-07T20:57:52.963Z,7.60
2023-01-07T21:03:54.861Z,7.50
2023-01-07T21:09:56.613Z,7.50
2023-01-07T21:16:03.746Z,7.40
2023-01-07T21:22:05.583Z,7.40
2023-01-07T21:28:07.371Z,7.20
2023-01-07T21:34:10.203Z,7.10
2023-01-07T21:40:12.395Z,7.00
2023-01-07T21:46:14.604Z,6.80
2023-01-07T21:52:16.478Z,6.50
2023-01-07T21:58:18.243Z,6.40
2023-01-07T22:04:20.255Z,6.30
2023-01-07T22:10:22.135Z,6.50
2023-01-07T22:16:25.795Z,6.70
2023-01-07T22:22:27.528Z,6.90
2023-01-07T22:28:31.982Z,7.20
2023-01-07T22:34:33.760Z,7.30
2023-01-07T22:40:36.636Z,7.40
2023-01-07T22:46:39.690Z,7.50
2023-01-07T22:52:42.721Z,7.60
2023-01-07T22:58:44.715Z,7.60
2023-01-07T23:04:46.629Z,7.60
2023-01-07T23:10:48.850Z,7.60
2023-01-07T23:16:51.897Z,7.50
2023-01-07T23:22:53.788Z,7.50
2023-01-07T23:28:55.532Z,7.50
2023-01-07T23:34:57.351Z,7.50
2023-01-07T23:41:04.894Z,7.60
2023-01-07T23:47:06.673Z,7.70
2023-01-07T23:53:08.478Z,7.80
2023-01-07T23:59:10.418Z,7.70
